Time;durP1;ratioP1;P1;durP2;ratioP2;P2;SDS_P1;SDS_P2;PMS_P1;PMS_P2;Temp;Humidity;BMP_temperature;BMP_pressure;BME280_temperature;BME280_humidity;BME280_pressure;Samples;Min_cycle;Max_cycle;Signal;HPM_P1;HPM_P2
2021/10/04 00:00:15;;;;;;;5.93;4.03;;;;;;;;;;5032148;28;20048;-45
2021/10/04 00:02:41;;;;;;;8.50;4.60;;;;;;;;;;5035520;28;20390;-44
2021/10/04 00:05:07;;;;;;;10.20;4.57;;;;;;;;;;5035352;28;20079;-45
2021/10/04 00:07:32;;;;;;;8.90;4.05;;;;;;;;;;5035410;28;20079;-44
2021/10/04 00:09:58;;;;;;;9.00;4.88;;;;;;;;;;5035278;28;20053;-44
2021/10/04 00:12:24;;;;;;;6.18;4.22;;;;;;;;;;5035074;28;20079;-44
2021/10/04 00:14:49;;;;;;;6.07;4.20;;;;;;;;;;5035025;28;20136;-44
2021/10/04 00:17:15;;;;;;;6.00;4.30;;;;;;;;;;5035134;28;20109;-44
2021/10/04 00:19:40;;;;;;;10.43;4.22;;;;;;;;;;5034922;28;20045;-44
2021/10/04 00:22:06;;;;;;;7.72;3.75;;;;;;;;;;5034966;28;20526;-44
2021/10/04 00:24:31;;;;;;;6.55;4.40;;;;;;;;;;5034955;28;20220;-44
2021/10/04 00:26:57;;;;;;;6.93;4.20;;;;;;;;;;5034840;28;20025;-44
2021/10/04 00:29:22;;;;;;;6.93;4.38;;;;;;;;;;5033502;28;20480;-44
2021/10/04 00:31:48;;;;;;;8.90;4.20;;;;;;;;;;5034786;28;20092;-44
2021/10/04 00:34:13;;;;;;;7.30;4.75;;;;;;;;;;5034642;28;20491;-44
2021/10/04 00:36:39;;;;;;;12.65;4.00;;;;;;;;;;5034741;28;20021;-45
2021/10/04 00:39:04;;;;;;;5.90;3.88;;;;;;;;;;5034549;28;20042;-44
2021/10/04 00:41:31;;;;;;;5.70;4.18;;;;;;;;;;5034498;28;20018;-44
2021/10/04 00:43:56;;;;;;;5.55;4.05;;;;;;;;;;5034859;28;20049;-45
2021/10/04 00:46:22;;;;;;;8.32;4.10;;;;;;;;;;5034439;28;20021;-45
2021/10/04 00:48:48;;;;;;;7.85;4.22;;;;;;;;;;5034754;28;20116;-45
2021/10/04 00:51:15;;;;;;;5.95;4.15;;;;;;;;;;5034388;28;20159;-44
2021/10/04 00:53:41;;;;;;;7.75;4.28;;;;;;;;;;5016625;28;20049;-45
2021/10/04 00:56:07;;;;;;;10.52;4.32;;;;;;;;;;5034360;28;20018;-44
2021/10/04 00:58:33;;;;;;;5.78;4.32;;;;;;;;;;5032857;28;20037;-44
2021/10/04 01:00:58;;;;;;;5.18;3.83;;;;;;;;;;5034525;28;20022;-44
2021/10/04 01:03:24;;;;;;;7.57;4.05;;;;;;;;;;5034103;28;20053;-44
2021/10/04 01:05:49;;;;;;;5.53;3.65;;;;;;;;;;5034198;28;20108;-44
2021/10/04 01:08:14;;;;;;;5.88;4.03;;;;;;;;;;5034130;28;20025;-45
2021/10/04 01:10:40;;;;;;;5.63;4.00;;;;;;;;;;5033455;28;20385;-46
2021/10/04 01:13:06;;;;;;;7.10;4.55;;;;;;;;;;5034096;28;20026;-44
2021/10/04 01:15:31;;;;;;;10.05;4.68;;;;;;;;;;5034229;28;20025;-44
2021/10/04 01:17:57;;;;;;;7.85;4.50;;;;;;;;;;5033801;28;20034;-44
2021/10/04 01:20:26;;;;;;;6.00;4.00;;;;;;;;;;5033854;28;20026;-45
2021/10/04 01:22:52;;;;;;;5.78;4.07;;;;;;;;;;5033793;28;20041;-45
2021/10/04 01:25:18;;;;;;;7.13;4.70;;;;;;;;;;5033761;28;20116;-44
2021/10/04 01:27:46;;;;;;;9.68;4.85;;;;;;;;;;5033692;28;20041;-45
2021/10/04 01:30:13;;;;;;;6.80;4.65;;;;;;;;;;5033973;28;20028;-45
2021/10/04 01:32:39;;;;;;;9.25;4.15;;;;;;;;;;5033651;28;20026;-45
2021/10/04 01:35:05;;;;;;;9.05;4.03;;;;;;;;;;5033560;28;20013;-44
2021/10/04 01:37:30;;;;;;;9.60;4.60;;;;;;;;;;5033744;28;20536;-44
2021/10/04 01:39:55;;;;;;;8.65;4.63;;;;;;;;;;5033607;28;20033;-45
2021/10/04 01:42:21;;;;;;;6.70;4.80;;;;;;;;;;5033627;28;20353;-45
2021/10/04 01:44:46;;;;;;;6.30;3.72;;;;;;;;;;5033539;28;20456;-44
2021/10/04 01:47:12;;;;;;;5.82;3.90;;;;;;;;;;5033619;28;20025;-44
2021/10/04 01:49:37;;;;;;;7.13;4.20;;;;;;;;;;5033651;28;20017;-45
2021/10/04 01:52:03;;;;;;;9.73;4.85;;;;;;;;;;5033380;28;20503;-44
2021/10/04 01:54:28;;;;;;;6.15;4.18;;;;;;;;;;5033106;28;20479;-44
2021/10/04 01:56:54;;;;;;;8.10;4.28;;;;;;;;;;5033320;28;20041;-44
2021/10/04 01:59:19;;;;;;;5.32;3.75;;;;;;;;;;5033060;28;20032;-44
2021/10/04 02:01:44;;;;;;;7.22;4.40;;;;;;;;;;5048373;28;20112;-44
2021/10/04 02:04:10;;;;;;;9.60;4.60;;;;;;;;;;5033419;28;20017;-44
2021/10/04 02:06:36;;;;;;;9.02;6.25;;;;;;;;;;5033117;28;20423;-44
2021/10/04 02:09:01;;;;;;;6.55;4.55;;;;;;;;;;5033015;28;20407;-44
2021/10/04 02:11:27;;;;;;;8.43;4.45;;;;;;;;;;5032772;28;20070;-44
2021/10/04 02:13:52;;;;;;;7.95;4.70;;;;;;;;;;5033121;28;20484;-44
2021/10/04 02:16:18;;;;;;;6.32;4.50;;;;;;;;;;5032963;28;20366;-45
2021/10/04 02:18:43;;;;;;;5.43;3.30;;;;;;;;;;5032449;28;20038;-45
2021/10/04 02:21:09;;;;;;;7.85;4.55;;;;;;;;;;5033082;28;20099;-44
2021/10/04 02:23:34;;;;;;;5.72;4.38;;;;;;;;;;5031911;28;20018;-44
2021/10/04 02:26:00;;;;;;;14.40;4.75;;;;;;;;;;5032614;28;20021;-44
2021/10/04 02:28:25;;;;;;;8.30;4.80;;;;;;;;;;5032889;28;20048;-44
2021/10/04 02:30:51;;;;;;;11.73;4.75;;;;;;;;;;5032571;28;20029;-44
2021/10/04 02:33:17;;;;;;;5.97;4.38;;;;;;;;;;5032470;28;20021;-44
2021/10/04 02:35:42;;;;;;;14.15;5.32;;;;;;;;;;5032706;28;20088;-44
2021/10/04 02:38:08;;;;;;;8.45;5.03;;;;;;;;;;5032570;28;20369;-45
2021/10/04 02:40:34;;;;;;;7.10;4.72;;;;;;;;;;5032284;28;20072;-44
2021/10/04 02:42:59;;;;;;;6.15;4.25;;;;;;;;;;5032701;28;20037;-44
2021/10/04 02:45:25;;;;;;;14.23;4.95;;;;;;;;;;5032211;28;20522;-44
2021/10/04 02:47:52;;;;;;;7.50;4.68;;;;;;;;;;5030993;28;20071;-44
2021/10/04 02:50:18;;;;;;;6.38;4.78;;;;;;;;;;5032130;28;20030;-44
2021/10/04 02:52:44;;;;;;;7.60;5.03;;;;;;;;;;5032130;28;20096;-44
2021/10/04 02:55:09;;;;;;;7.82;5.18;;;;;;;;;;5032218;28;20531;-44
2021/10/04 02:57:35;;;;;;;11.95;4.93;;;;;;;;;;5031875;28;20053;-44
2021/10/04 03:00:00;;;;;;;6.28;4.10;;;;;;;;;;5032270;28;20106;-44
2021/10/04 03:02:26;;;;;;;9.32;4.68;;;;;;;;;;5032155;28;20037;-44
2021/10/04 03:04:52;;;;;;;10.00;4.47;;;;;;;;;;5032297;28;20120;-44
2021/10/04 03:07:17;;;;;;;9.38;4.93;;;;;;;;;;5030685;28;20176;-44
2021/10/04 03:09:43;;;;;;;6.40;4.50;;;;;;;;;;5031804;28;20030;-44
2021/10/04 03:12:08;;;;;;;6.50;4.95;;;;;;;;;;5032173;28;20477;-45
2021/10/04 03:14:34;;;;;;;6.57;4.80;;;;;;;;;;5031719;28;20044;-44
2021/10/04 03:17:00;;;;;;;5.00;3.65;;;;;;;;;;5032015;28;20017;-44
2021/10/04 03:19:25;;;;;;;7.07;4.35;;;;;;;;;;5030314;28;20033;-44
2021/10/04 03:21:51;;;;;;;6.43;4.28;;;;;;;;;;5031847;28;20029;-47
2021/10/04 03:24:16;;;;;;;7.10;4.40;;;;;;;;;;5031684;28;20177;-45
2021/10/04 03:26:42;;;;;;;9.60;4.72;;;;;;;;;;5031587;28;20036;-45
2021/10/04 03:29:07;;;;;;;6.88;4.00;;;;;;;;;;5031476;28;20034;-44
2021/10/04 03:31:33;;;;;;;9.18;4.53;;;;;;;;;;5031740;28;20025;-44
2021/10/04 03:33:58;;;;;;;8.02;4.65;;;;;;;;;;5031426;28;20037;-44
2021/10/04 03:36:23;;;;;;;10.32;4.70;;;;;;;;;;5031305;28;20045;-44
2021/10/04 03:38:50;;;;;;;7.68;4.30;;;;;;;;;;5031445;28;20033;-44
2021/10/04 03:41:15;;;;;;;10.68;4.88;;;;;;;;;;5030142;28;20029;-44
2021/10/04 03:43:41;;;;;;;7.18;4.40;;;;;;;;;;5046716;28;20029;-45
2021/10/04 03:46:07;;;;;;;10.80;4.75;;;;;;;;;;5031344;28;20097;-44
2021/10/04 03:48:32;;;;;;;10.32;4.47;;;;;;;;;;5031532;28;20033;-44
2021/10/04 03:50:57;;;;;;;8.30;4.93;;;;;;;;;;5031271;28;20025;-44
2021/10/04 03:53:23;;;;;;;8.70;5.00;;;;;;;;;;5031466;28;20060;-44
2021/10/04 03:55:48;;;;;;;12.32;5.15;;;;;;;;;;5031355;28;20021;-44
2021/10/04 03:58:14;;;;;;;6.95;4.60;;;;;;;;;;5029831;28;20042;-45
2021/10/04 04:00:39;;;;;;;6.35;4.57;;;;;;;;;;5031382;28;20030;-44
2021/10/04 04:03:05;;;;;;;8.52;4.22;;;;;;;;;;5031540;28;20022;-44
2021/10/04 04:05:30;;;;;;;12.57;4.63;;;;;;;;;;5031580;28;20025;-44
2021/10/04 04:07:56;;;;;;;7.57;4.57;;;;;;;;;;5031261;28;20034;-44
2021/10/04 04:10:21;;;;;;;10.05;5.47;;;;;;;;;;5031048;28;20041;-45
2021/10/04 04:12:47;;;;;;;6.88;4.45;;;;;;;;;;5031204;28;20029;-44
2021/10/04 04:15:12;;;;;;;9.85;6.18;;;;;;;;;;5031215;28;20025;-45
2021/10/04 04:17:38;;;;;;;9.00;4.47;;;;;;;;;;5030978;28;20396;-44
2021/10/04 04:20:04;;;;;;;8.32;5.07;;;;;;;;;;5030951;28;20025;-45
2021/10/04 04:22:30;;;;;;;10.63;4.20;;;;;;;;;;5030993;28;20038;-44
2021/10/04 04:24:56;;;;;;;9.07;4.55;;;;;;;;;;5031030;28;20028;-44
2021/10/04 04:27:22;;;;;;;5.95;4.63;;;;;;;;;;5031001;28;20076;-44
2021/10/04 04:29:47;;;;;;;7.68;4.43;;;;;;;;;;5031185;28;20025;-45
2021/10/04 04:32:12;;;;;;;9.35;5.03;;;;;;;;;;5030797;28;20040;-48
2021/10/04 04:34:38;;;;;;;7.68;4.07;;;;;;;;;;5030843;28;20013;-44
2021/10/04 04:37:04;;;;;;;11.90;4.93;;;;;;;;;;5030896;28;20029;-44
2021/10/04 04:39:30;;;;;;;7.18;4.40;;;;;;;;;;5030671;28;20034;-44
2021/10/04 04:41:56;;;;;;;7.63;4.55;;;;;;;;;;5030807;28;20037;-45
2021/10/04 04:44:22;;;;;;;6.20;4.28;;;;;;;;;;5031081;28;20067;-44
2021/10/04 04:46:47;;;;;;;6.53;4.63;;;;;;;;;;5033616;28;20049;-44
2021/10/04 04:49:13;;;;;;;6.28;4.75;;;;;;;;;;5034752;28;20026;-44
2021/10/04 04:51:38;;;;;;;6.90;5.03;;;;;;;;;;5034334;28;20503;-44
2021/10/04 04:54:04;;;;;;;12.57;5.03;;;;;;;;;;5034701;28;20018;-45
2021/10/04 04:56:29;;;;;;;10.85;5.57;;;;;;;;;;5034170;28;20485;-44
2021/10/04 04:58:54;;;;;;;9.00;4.50;;;;;;;;;;5034593;28;20029;-44
2021/10/04 05:01:20;;;;;;;12.27;5.18;;;;;;;;;;5034529;28;20753;-44
2021/10/04 05:03:45;;;;;;;7.03;4.45;;;;;;;;;;5034361;28;20029;-44
2021/10/04 05:06:11;;;;;;;7.60;3.83;;;;;;;;;;5034243;28;20036;-44
2021/10/04 05:08:36;;;;;;;7.28;4.82;;;;;;;;;;5034009;28;20049;-44
2021/10/04 05:11:02;;;;;;;7.93;5.18;;;;;;;;;;5034035;28;20053;-44
2021/10/04 05:13:27;;;;;;;7.93;5.10;;;;;;;;;;5034071;28;20438;-44
2021/10/04 05:15:53;;;;;;;6.68;5.35;;;;;;;;;;5033902;28;20613;-45
2021/10/04 05:18:18;;;;;;;8.52;4.40;;;;;;;;;;5033945;28;20041;-45
2021/10/04 05:20:44;;;;;;;7.35;5.38;;;;;;;;;;5033728;28;20035;-45
2021/10/04 05:23:09;;;;;;;9.32;4.40;;;;;;;;;;5033881;28;20033;-45
2021/10/04 05:25:35;;;;;;;8.80;4.47;;;;;;;;;;5034082;28;20460;-47
2021/10/04 05:28:00;;;;;;;5.97;4.30;;;;;;;;;;5034029;28;20013;-45
2021/10/04 05:30:26;;;;;;;7.68;5.63;;;;;;;;;;5033631;28;20475;-44
2021/10/04 05:32:52;;;;;;;9.70;4.47;;;;;;;;;;5034045;28;20030;-44
2021/10/04 05:35:17;;;;;;;7.05;4.63;;;;;;;;;;5033657;28;20071;-44
2021/10/04 05:37:44;;;;;;;8.93;4.72;;;;;;;;;;5033439;28;20013;-44
2021/10/04 05:40:10;;;;;;;9.10;5.22;;;;;;;;;;5033451;28;20033;-45
2021/10/04 05:42:35;;;;;;;10.02;5.55;;;;;;;;;;5033459;28;20029;-44
2021/10/04 05:45:05;;;;;;;11.30;5.50;;;;;;;;;;5033423;28;20065;-45
2021/10/04 05:47:30;;;;;;;9.07;6.00;;;;;;;;;;5033365;28;20108;-44
2021/10/04 05:49:56;;;;;;;6.80;4.70;;;;;;;;;;5033667;28;20101;-44
2021/10/04 05:52:21;;;;;;;7.30;4.18;;;;;;;;;;5033275;28;20029;-45
2021/10/04 05:54:47;;;;;;;9.95;6.03;;;;;;;;;;5033601;28;20076;-44
2021/10/04 05:57:12;;;;;;;8.45;4.45;;;;;;;;;;5032304;28;20168;-45
2021/10/04 05:59:37;;;;;;;7.20;5.10;;;;;;;;;;5032865;28;20041;-44
2021/10/04 06:02:03;;;;;;;7.28;5.18;;;;;;;;;;5033192;28;20020;-43
2021/10/04 06:04:28;;;;;;;6.57;5.03;;;;;;;;;;5033029;28;20073;-44
2021/10/04 06:06:54;;;;;;;7.30;5.05;;;;;;;;;;5033031;28;20401;-44
2021/10/04 06:09:20;;;;;;;8.13;4.72;;;;;;;;;;5033358;28;20077;-45
2021/10/04 06:11:45;;;;;;;8.82;4.88;;;;;;;;;;5032608;28;20107;-44
2021/10/04 06:14:10;;;;;;;9.40;4.88;;;;;;;;;;5032946;28;20476;-44
2021/10/04 06:16:36;;;;;;;6.85;4.72;;;;;;;;;;5031615;28;20202;-44
2021/10/04 06:19:02;;;;;;;9.88;4.57;;;;;;;;;;5032752;28;20037;-44
2021/10/04 06:21:29;;;;;;;10.63;4.90;;;;;;;;;;5032661;28;20056;-44
2021/10/04 06:23:54;;;;;;;8.35;4.72;;;;;;;;;;5032716;28;20029;-45
2021/10/04 06:26:20;;;;;;;12.23;4.82;;;;;;;;;;5032760;28;20029;-44
2021/10/04 06:28:45;;;;;;;11.65;4.80;;;;;;;;;;5032577;28;20479;-44
2021/10/04 06:31:11;;;;;;;7.43;5.05;;;;;;;;;;5032793;28;20021;-44
2021/10/04 06:33:37;;;;;;;7.22;4.78;;;;;;;;;;5032493;28;20056;-44
2021/10/04 06:36:02;;;;;;;8.70;5.00;;;;;;;;;;5032444;28;20025;-44
2021/10/04 06:38:28;;;;;;;9.45;4.82;;;;;;;;;;5032335;28;20041;-44
2021/10/04 06:40:53;;;;;;;8.95;4.55;;;;;;;;;;5031072;28;20067;-44
2021/10/04 06:43:19;;;;;;;8.18;5.03;;;;;;;;;;5032328;28;20045;-44
2021/10/04 06:45:45;;;;;;;7.03;5.55;;;;;;;;;;5032572;28;20033;-44
2021/10/04 06:48:10;;;;;;;11.05;6.18;;;;;;;;;;5030960;28;20025;-44
2021/10/04 06:50:36;;;;;;;10.15;4.72;;;;;;;;;;5032118;28;20025;-44
2021/10/04 06:53:02;;;;;;;7.28;4.97;;;;;;;;;;5047525;28;20025;-44
2021/10/04 06:55:27;;;;;;;7.57;4.93;;;;;;;;;;5031987;28;20163;-44
2021/10/04 06:57:52;;;;;;;9.35;5.05;;;;;;;;;;5032116;28;20061;-44
2021/10/04 07:00:21;;;;;;;8.02;5.20;;;;;;;;;;5032133;28;20026;-44
2021/10/04 07:02:50;;;;;;;11.00;5.18;;;;;;;;;;5032182;28;20053;-44
2021/10/04 07:05:18;;;;;;;9.77;5.25;;;;;;;;;;5032087;28;20029;-44
2021/10/04 07:07:44;;;;;;;12.40;5.13;;;;;;;;;;5031807;28;20508;-44
2021/10/04 07:10:09;;;;;;;7.40;4.38;;;;;;;;;;5031408;28;20099;-44
2021/10/04 07:12:35;;;;;;;8.82;5.63;;;;;;;;;;5031748;28;20052;-44
2021/10/04 07:15:00;;;;;;;9.45;4.78;;;;;;;;;;5031838;28;20068;-44
2021/10/04 07:17:26;;;;;;;6.55;5.15;;;;;;;;;;5030458;28;20029;-44
2021/10/04 07:19:51;;;;;;;9.00;4.78;;;;;;;;;;5031519;28;20514;-45
2021/10/04 07:22:17;;;;;;;9.63;5.40;;;;;;;;;;5031755;28;20041;-44
2021/10/04 07:24:43;;;;;;;9.32;5.80;;;;;;;;;;5031569;28;20037;-45
2021/10/04 07:27:08;;;;;;;7.75;5.18;;;;;;;;;;5031435;28;20108;-44
2021/10/04 07:29:34;;;;;;;12.38;5.63;;;;;;;;;;5031604;28;20025;-44
2021/10/04 07:32:02;;;;;;;7.60;5.50;;;;;;;;;;5031497;28;20495;-44
2021/10/04 07:34:31;;;;;;;6.07;4.55;;;;;;;;;;5031584;28;20013;-44
2021/10/04 07:36:57;;;;;;;8.82;5.40;;;;;;;;;;5031805;28;20029;-44
2021/10/04 07:39:22;;;;;;;11.05;5.63;;;;;;;;;;5031278;28;20672;-45
2021/10/04 07:41:48;;;;;;;14.35;6.20;;;;;;;;;;5031687;28;20025;-44
2021/10/04 07:44:13;;;;;;;10.90;5.13;;;;;;;;;;5031343;28;20067;-44
2021/10/04 07:46:39;;;;;;;9.13;5.38;;;;;;;;;;5031264;28;20025;-44
2021/10/04 07:49:04;;;;;;;7.68;4.85;;;;;;;;;;5031687;28;20018;-44
2021/10/04 07:51:30;;;;;;;8.15;4.43;;;;;;;;;;5031118;28;20034;-44
2021/10/04 07:53:56;;;;;;;7.78;5.18;;;;;;;;;;5031579;28;20064;-45
2021/10/04 07:56:22;;;;;;;9.98;5.35;;;;;;;;;;5031212;28;20060;-44
2021/10/04 07:58:48;;;;;;;11.02;5.18;;;;;;;;;;5031122;28;20033;-44
2021/10/04 08:01:14;;;;;;;9.80;5.85;;;;;;;;;;5029869;28;20039;-45
2021/10/04 08:03:39;;;;;;;9.98;6.50;;;;;;;;;;5031109;28;20119;-44
2021/10/04 08:06:05;;;;;;;8.85;5.32;;;;;;;;;;5031213;28;20419;-44
2021/10/04 08:08:31;;;;;;;8.32;5.43;;;;;;;;;;5031116;28;20048;-44
2021/10/04 08:10:57;;;;;;;8.50;5.65;;;;;;;;;;5030948;28;20053;-44
2021/10/04 08:13:22;;;;;;;10.63;5.18;;;;;;;;;;5031122;28;20029;-44
2021/10/04 08:15:48;;;;;;;9.68;5.28;;;;;;;;;;5030951;28;20481;-44
2021/10/04 08:18:13;;;;;;;8.93;5.47;;;;;;;;;;5031045;28;20029;-45
2021/10/04 08:20:38;;;;;;;8.93;5.20;;;;;;;;;;5032077;28;20021;-44
2021/10/04 08:23:05;;;;;;;10.05;5.10;;;;;;;;;;5034996;28;20496;-44
2021/10/04 08:25:30;;;;;;;9.95;5.75;;;;;;;;;;5034941;28;20035;-44
2021/10/04 08:27:56;;;;;;;9.05;5.85;;;;;;;;;;5034839;28;20124;-44
2021/10/04 08:30:21;;;;;;;15.20;7.50;;;;;;;;;;5034912;28;20029;-44
2021/10/04 08:32:47;;;;;;;12.90;6.65;;;;;;;;;;5034865;28;20020;-44
2021/10/04 08:35:13;;;;;;;10.60;5.13;;;;;;;;;;5034676;28;20071;-44
2021/10/04 08:37:38;;;;;;;7.68;5.38;;;;;;;;;;5034977;28;20500;-44
2021/10/04 08:40:05;;;;;;;13.13;5.00;;;;;;;;;;5034844;28;20044;-44
2021/10/04 08:42:31;;;;;;;10.23;5.40;;;;;;;;;;5034557;28;20025;-45
2021/10/04 08:44:57;;;;;;;9.23;6.05;;;;;;;;;;5034672;28;20087;-44
2021/10/04 08:47:22;;;;;;;9.80;6.35;;;;;;;;;;5034586;28;20049;-44
2021/10/04 08:49:49;;;;;;;10.82;5.88;;;;;;;;;;5034415;28;20112;-45
2021/10/04 08:52:14;;;;;;;8.93;6.07;;;;;;;;;;5034775;28;20036;-44
2021/10/04 08:54:42;;;;;;;9.20;6.35;;;;;;;;;;5034381;28;20034;-44
2021/10/04 08:57:08;;;;;;;9.60;5.68;;;;;;;;;;5034640;28;20022;-44
2021/10/04 08:59:33;;;;;;;10.15;5.45;;;;;;;;;;5034110;28;20041;-44
2021/10/04 09:02:17;;;;;;;9.45;4.93;;;;;;;;;;5033162;28;20052;-44
2021/10/04 09:04:43;;;;;;;11.35;5.93;;;;;;;;;;5034114;28;20041;-44
2021/10/04 09:07:08;;;;;;;9.00;5.47;;;;;;;;;;5034232;28;20025;-44
2021/10/04 09:09:34;;;;;;;11.07;6.70;;;;;;;;;;5033874;28;20033;-44
2021/10/04 09:11:59;;;;;;;11.60;5.55;;;;;;;;;;5034141;28;20486;-45
2021/10/04 09:14:29;;;;;;;8.68;5.68;;;;;;;;;;5034159;28;20415;-44
2021/10/04 09:17:00;;;;;;;12.70;5.88;;;;;;;;;;5033973;28;20515;-44
2021/10/04 09:19:29;;;;;;;11.77;5.70;;;;;;;;;;5033896;28;20124;-44
2021/10/04 09:22:07;;;;;;;11.60;5.53;;;;;;;;;;5034185;28;20060;-44
2021/10/04 09:24:33;;;;;;;10.63;6.00;;;;;;;;;;5034116;28;20387;-44
2021/10/04 09:26:59;;;;;;;11.30;5.65;;;;;;;;;;5033822;28;20230;-45
2021/10/04 09:29:25;;;;;;;8.75;5.72;;;;;;;;;;5034165;28;20480;-44
2021/10/04 09:31:51;;;;;;;8.38;5.50;;;;;;;;;;5033591;28;20045;-44
2021/10/04 09:34:20;;;;;;;9.07;5.68;;;;;;;;;;5033761;28;20108;-44
2021/10/04 09:36:53;;;;;;;8.90;5.88;;;;;;;;;;5033932;28;20037;-45
2021/10/04 09:39:24;;;;;;;11.93;5.82;;;;;;;;;;5033894;28;20052;-44
2021/10/04 09:41:59;;;;;;;10.55;5.97;;;;;;;;;;5033608;28;20370;-44
2021/10/04 09:44:25;;;;;;;12.40;5.70;;;;;;;;;;5033487;28;20032;-48
2021/10/04 09:46:51;;;;;;;13.23;6.80;;;;;;;;;;5033512;28;20075;-45
2021/10/04 09:49:16;;;;;;;11.55;5.72;;;;;;;;;;5033633;28;20037;-44
2021/10/04 09:51:51;;;;;;;10.27;5.28;;;;;;;;;;5033608;28;20024;-44
2021/10/04 09:54:16;;;;;;;8.10;5.22;;;;;;;;;;5033564;28;20447;-44
2021/10/04 09:56:42;;;;;;;15.90;7.22;;;;;;;;;;5033458;28;20017;-45
2021/10/04 09:59:10;;;;;;;8.40;5.57;;;;;;;;;;5032054;28;20064;-44
2021/10/04 10:01:36;;;;;;;10.25;6.90;;;;;;;;;;5033011;28;20152;-44
2021/10/04 10:04:01;;;;;;;10.43;5.53;;;;;;;;;;5031978;28;20026;-44
2021/10/04 10:06:28;;;;;;;10.43;6.43;;;;;;;;;;5033237;28;20029;-44
2021/10/04 10:08:54;;;;;;;9.30;6.63;;;;;;;;;;5032910;28;20477;-45
2021/10/04 10:11:22;;;;;;;8.52;5.72;;;;;;;;;;5032863;28;20045;-44
2021/10/04 10:13:48;;;;;;;15.23;6.45;;;;;;;;;;5032824;28;20025;-44
2021/10/04 10:16:20;;;;;;;13.57;5.90;;;;;;;;;;5033151;28;20036;-44
2021/10/04 10:18:52;;;;;;;12.13;6.40;;;;;;;;;;5032759;28;20036;-44
2021/10/04 10:21:19;;;;;;;10.02;7.03;;;;;;;;;;5032773;28;20427;-44
2021/10/04 10:23:48;;;;;;;9.57;6.13;;;;;;;;;;5032779;28;20053;-44
2021/10/04 10:26:29;;;;;;;9.02;5.55;;;;;;;;;;5031495;28;20041;-45
2021/10/04 10:29:10;;;;;;;12.70;5.30;;;;;;;;;;5032560;28;20038;-44
2021/10/04 10:31:48;;;;;;;16.58;6.53;;;;;;;;;;5032653;28;20037;-44
2021/10/04 10:34:32;;;;;;;10.20;5.43;;;;;;;;;;5032550;28;20036;-44
2021/10/04 10:37:00;;;;;;;9.82;6.20;;;;;;;;;;5032515;28;20496;-44
2021/10/04 10:39:37;;;;;;;9.73;5.30;;;;;;;;;;5032703;28;20068;-44
2021/10/04 10:42:46;;;;;;;13.95;6.80;;;;;;;;;;5032454;28;20041;-44
2021/10/04 10:45:13;;;;;;;9.32;5.95;;;;;;;;;;5029591;28;20064;-44
2021/10/04 10:47:39;;;;;;;8.45;5.32;;;;;;;;;;5028178;28;20377;-44
2021/10/04 10:50:09;;;;;;;10.07;6.35;;;;;;;;;;5032225;28;20033;-44
2021/10/04 10:52:36;;;;;;;11.30;6.45;;;;;;;;;;5032100;28;20034;-44
2021/10/04 10:55:21;;;;;;;14.95;6.47;;;;;;;;;;5032223;28;20102;-44
2021/10/04 10:57:59;;;;;;;9.00;5.90;;;;;;;;;;5031960;28;20472;-44
2021/10/04 11:00:31;;;;;;;8.70;5.63;;;;;;;;;;5032321;28;20049;-44
2021/10/04 11:03:00;;;;;;;8.98;6.18;;;;;;;;;;5030899;28;20060;-44
2021/10/04 11:05:31;;;;;;;12.27;7.28;;;;;;;;;;5032010;28;20033;-44
2021/10/04 11:07:56;;;;;;;9.40;5.93;;;;;;;;;;5031918;28;20498;-44
2021/10/04 11:10:22;;;;;;;11.30;5.22;;;;;;;;;;5031919;28;20054;-44
2021/10/04 11:13:06;;;;;;;10.52;6.38;;;;;;;;;;5031758;28;20404;-45
2021/10/04 11:15:32;;;;;;;9.82;5.80;;;;;;;;;;5032226;28;20029;-44
2021/10/04 11:17:57;;;;;;;8.45;5.65;;;;;;;;;;5031803;28;20021;-45
2021/10/04 11:20:23;;;;;;;8.77;6.13;;;;;;;;;;5031726;28;20076;-44
2021/10/04 11:22:48;;;;;;;10.57;5.90;;;;;;;;;;5031902;28;20021;-44
2021/10/04 11:25:15;;;;;;;10.70;6.03;;;;;;;;;;5031695;28;20365;-44
2021/10/04 11:27:47;;;;;;;9.18;5.32;;;;;;;;;;5031597;28;20029;-44
2021/10/04 11:30:13;;;;;;;9.65;5.80;;;;;;;;;;5031604;28;20060;-44
2021/10/04 11:32:39;;;;;;;9.98;5.93;;;;;;;;;;5031533;28;20060;-44
2021/10/04 11:35:14;;;;;;;8.98;5.65;;;;;;;;;;5031436;28;20030;-44
2021/10/04 11:37:40;;;;;;;9.60;5.38;;;;;;;;;;5031473;28;20030;-44
2021/10/04 11:40:06;;;;;;;10.00;6.53;;;;;;;;;;5031329;28;20038;-44
2021/10/04 11:42:32;;;;;;;8.18;5.55;;;;;;;;;;5031416;28;20026;-45
2021/10/04 11:45:00;;;;;;;7.30;4.75;;;;;;;;;;5031717;28;20041;-45
2021/10/04 11:47:26;;;;;;;8.68;5.10;;;;;;;;;;5031511;28;20026;-44
2021/10/04 11:49:53;;;;;;;9.10;5.45;;;;;;;;;;5031624;28;20510;-44
2021/10/04 11:52:20;;;;;;;8.38;5.32;;;;;;;;;;5031532;28;20033;-44
2021/10/04 11:54:50;;;;;;;12.52;6.20;;;;;;;;;;5029663;28;20075;-44
2021/10/04 11:57:36;;;;;;;9.10;5.53;;;;;;;;;;5031086;28;20087;-44
2021/10/04 12:00:06;;;;;;;7.20;5.40;;;;;;;;;;5029901;28;20415;-44
2021/10/04 12:02:49;;;;;;;10.45;6.03;;;;;;;;;;5031073;28;20033;-44
2021/10/04 12:05:16;;;;;;;9.57;6.28;;;;;;;;;;5031540;28;20033;-44
2021/10/04 12:08:02;;;;;;;8.85;5.32;;;;;;;;;;5031067;28;20032;-44
2021/10/04 12:10:38;;;;;;;7.43;4.82;;;;;;;;;;5030285;28;20068;-45
2021/10/04 12:13:03;;;;;;;6.18;4.15;;;;;;;;;;5031154;28;20048;-44
2021/10/04 12:15:29;;;;;;;6.95;3.53;;;;;;;;;;5031046;28;20040;-44
2021/10/04 12:17:54;;;;;;;8.30;4.57;;;;;;;;;;5031146;28;20503;-44
2021/10/04 12:20:21;;;;;;;8.60;4.20;;;;;;;;;;5031329;28;20469;-44
2021/10/04 12:22:46;;;;;;;13.20;5.28;;;;;;;;;;5031125;28;20041;-45
2021/10/04 12:25:26;;;;;;;7.35;4.80;;;;;;;;;;5031244;28;20017;-44
2021/10/04 12:28:03;;;;;;;6.45;3.95;;;;;;;;;;5030942;28;20492;-46
2021/10/04 12:30:43;;;;;;;6.32;3.50;;;;;;;;;;5030864;28;20587;-45
2021/10/04 12:33:09;;;;;;;5.50;3.67;;;;;;;;;;5030899;28;20030;-44
2021/10/04 12:35:35;;;;;;;8.93;3.55;;;;;;;;;;5030813;28;20024;-44
2021/10/04 12:38:03;;;;;;;2.60;2.22;;;;;;;;;;5030761;28;20030;-45
2021/10/04 12:40:34;;;;;;;4.30;3.22;;;;;;;;;;5029608;28;20116;-44
2021/10/04 12:43:05;;;;;;;5.78;2.35;;;;;;;;;;5030801;28;20144;-44
2021/10/04 12:45:31;;;;;;;4.65;3.17;;;;;;;;;;5031033;28;20052;-44
2021/10/04 12:47:59;;;;;;;3.65;3.05;;;;;;;;;;5030863;28;20099;-44
2021/10/04 12:50:27;;;;;;;3.75;2.42;;;;;;;;;;5046006;28;20029;-45
2021/10/04 12:52:54;;;;;;;7.15;3.25;;;;;;;;;;5030882;28;20029;-45
2021/10/04 12:55:20;;;;;;;5.63;3.08;;;;;;;;;;5030790;28;20388;-44
2021/10/04 12:57:50;;;;;;;4.75;2.58;;;;;;;;;;5030600;28;20014;-44
2021/10/04 13:00:16;;;;;;;4.68;2.88;;;;;;;;;;5030901;28;20034;-44
2021/10/04 13:02:41;;;;;;;6.18;3.03;;;;;;;;;;5030645;28;20043;-44
2021/10/04 13:05:08;;;;;;;4.90;3.17;;;;;;;;;;5030940;28;20128;-44
2021/10/04 13:07:33;;;;;;;6.05;4.13;;;;;;;;;;5032838;28;20022;-45
2021/10/04 13:09:59;;;;;;;4.20;2.95;;;;;;;;;;5033937;28;20377;-45
2021/10/04 13:12:26;;;;;;;5.63;2.75;;;;;;;;;;5034243;28;20112;-44
2021/10/04 13:14:51;;;;;;;5.80;3.05;;;;;;;;;;5034283;28;20128;-44
2021/10/04 13:17:17;;;;;;;5.05;2.55;;;;;;;;;;5034091;28;20540;-44
2021/10/04 13:19:43;;;;;;;5.10;2.22;;;;;;;;;;5033823;28;20130;-44
2021/10/04 13:22:08;;;;;;;2.90;2.08;;;;;;;;;;5034293;28;20021;-45
2021/10/04 13:24:34;;;;;;;3.95;2.47;;;;;;;;;;5034060;28;20057;-44
2021/10/04 13:27:00;;;;;;;3.05;2.15;;;;;;;;;;5032460;28;20021;-44
2021/10/04 13:29:26;;;;;;;3.95;2.25;;;;;;;;;;5033900;28;20452;-44
2021/10/04 13:31:51;;;;;;;4.30;2.53;;;;;;;;;;5034048;28;20041;-44
2021/10/04 13:34:17;;;;;;;3.03;1.98;;;;;;;;;;5034000;28;20049;-45
2021/10/04 13:36:43;;;;;;;5.65;2.28;;;;;;;;;;5033678;28;20152;-45
2021/10/04 13:39:09;;;;;;;2.42;1.90;;;;;;;;;;5033515;28;20049;-45
2021/10/04 13:41:35;;;;;;;3.00;1.98;;;;;;;;;;5033616;28;20092;-44
2021/10/04 13:44:01;;;;;;;4.03;2.25;;;;;;;;;;5033934;28;20424;-45
2021/10/04 13:46:26;;;;;;;3.50;2.28;;;;;;;;;;5033477;28;20530;-45
2021/10/04 13:48:52;;;;;;;3.30;2.20;;;;;;;;;;5033391;28;20030;-45
2021/10/04 13:51:21;;;;;;;2.63;1.67;;;;;;;;;;5048837;28;20014;-44
2021/10/04 13:53:50;;;;;;;1.77;1.48;;;;;;;;;;5033316;28;20037;-44
2021/10/04 13:56:19;;;;;;;7.57;1.98;;;;;;;;;;5033597;28;20060;-44
2021/10/04 13:58:45;;;;;;;2.05;1.65;;;;;;;;;;5033477;28;20501;-44
2021/10/04 14:01:11;;;;;;;4.43;2.20;;;;;;;;;;5033485;28;20144;-45
2021/10/04 14:03:36;;;;;;;2.55;1.60;;;;;;;;;;5033107;28;20029;-44
2021/10/04 14:06:02;;;;;;;4.78;2.47;;;;;;;;;;5033196;28;20021;-45
2021/10/04 14:08:28;;;;;;;2.17;1.15;;;;;;;;;;5033158;28;20053;-46
2021/10/04 14:10:54;;;;;;;5.32;1.70;;;;;;;;;;5032748;28;20077;-44
2021/10/04 14:13:19;;;;;;;1.95;1.08;;;;;;;;;;5033143;28;20820;-44
2021/10/04 14:15:45;;;;;;;2.05;1.38;;;;;;;;;;5032930;28;20033;-44
2021/10/04 14:18:11;;;;;;;1.85;1.50;;;;;;;;;;5032012;28;20044;-44
2021/10/04 14:20:36;;;;;;;3.53;1.65;;;;;;;;;;5032953;28;20059;-44
2021/10/04 14:23:02;;;;;;;1.73;1.15;;;;;;;;;;5033047;28;20025;-45
2021/10/04 14:25:27;;;;;;;2.53;1.92;;;;;;;;;;5032831;28;20494;-44
2021/10/04 14:27:53;;;;;;;1.45;1.10;;;;;;;;;;5032659;28;20045;-44
2021/10/04 14:30:19;;;;;;;5.65;2.00;;;;;;;;;;5032921;28;20111;-44
2021/10/04 14:32:45;;;;;;;2.40;1.20;;;;;;;;;;5032925;28;20033;-45
2021/10/04 14:35:15;;;;;;;2.22;1.70;;;;;;;;;;5032613;28;20499;-44
2021/10/04 14:37:41;;;;;;;1.70;1.35;;;;;;;;;;5032485;28;20018;-44